createdAt,value
2024-05-09T00:00:22.284Z,84.88
2024-05-09T00:01:15.925Z,84.78
2024-05-09T00:02:15.945Z,84.78
2024-05-09T00:03:15.936Z,84.88
2024-05-09T00:04:15.914Z,85.09
2024-05-09T00:05:15.888Z,85.39
2024-05-09T00:06:15.902Z,84.78
2024-05-09T00:07:15.844Z,84.99
2024-05-09T00:08:15.848Z,84.58
2024-05-09T00:09:15.844Z,84.47
2024-05-09T00:10:25.062Z,84.58
2024-05-09T00:11:15.931Z,84.78
2024-05-09T00:12:15.906Z,84.58
2024-05-09T00:13:15.800Z,84.47
2024-05-09T00:14:15.800Z,84.17
2024-05-09T00:15:15.748Z,84.88
2024-05-09T00:16:15.702Z,85.30
2024-05-09T00:17:15.759Z,84.88
2024-05-09T00:18:15.889Z,85.09
2024-05-09T00:19:15.786Z,84.37
2024-05-09T00:20:20.610Z,84.99
2024-05-09T00:21:15.681Z,84.78
2024-05-09T00:22:15.673Z,84.78
2024-05-09T00:23:15.725Z,85.19
2024-05-09T00:24:15.633Z,85.19
2024-05-09T00:25:15.626Z,85.50
2024-05-09T00:26:15.636Z,85.13
2024-05-09T00:27:15.604Z,85.23
2024-05-09T00:28:15.597Z,84.92
2024-05-09T00:29:15.677Z,85.03
2024-05-09T00:30:24.177Z,84.92
2024-05-09T00:31:15.552Z,85.44
2024-05-09T00:32:15.580Z,86.15
2024-05-09T00:33:15.847Z,85.54
2024-05-09T00:34:15.617Z,85.03
2024-05-09T00:35:15.607Z,84.82
2024-05-09T00:36:15.487Z,85.64
2024-05-09T00:37:15.488Z,85.03
2024-05-09T00:38:15.506Z,85.23
2024-05-09T00:39:15.533Z,85.13
2024-05-09T00:40:22.879Z,84.92
2024-05-09T00:41:18.906Z,85.64
2024-05-09T00:42:15.444Z,85.95
2024-05-09T00:43:15.707Z,85.44
2024-05-09T00:44:15.511Z,85.74
2024-05-09T00:45:15.417Z,86.36
2024-05-09T00:46:15.373Z,85.44
2024-05-09T00:47:15.618Z,84.82
2024-05-09T00:48:17.805Z,84.52
2024-05-09T00:49:15.461Z,85.13
2024-05-09T00:50:19.445Z,85.03
2024-05-09T00:51:15.407Z,84.72
2024-05-09T00:52:15.338Z,85.03
2024-05-09T00:53:15.862Z,84.92
2024-05-09T00:54:15.294Z,84.92
2024-05-09T00:55:15.316Z,85.13
2024-05-09T00:56:15.307Z,84.82
2024-05-09T00:57:15.280Z,85.13
2024-05-09T00:58:15.263Z,86.25
2024-05-09T00:59:15.320Z,85.95
2024-05-09T01:00:26.062Z,85.95
2024-05-09T01:01:15.246Z,85.99
2024-05-09T01:02:15.323Z,86.40
2024-05-09T01:03:15.515Z,85.58
2024-05-09T01:04:15.241Z,85.89
2024-05-09T01:05:15.404Z,85.89
2024-05-09T01:06:15.174Z,86.30
2024-05-09T01:07:15.174Z,86.50
2024-05-09T01:08:15.246Z,86.60
2024-05-09T01:09:15.149Z,86.50
2024-05-09T01:10:21.204Z,86.30
2024-05-09T01:11:15.206Z,86.60
2024-05-09T01:12:15.288Z,86.30
2024-05-09T01:13:15.111Z,86.60
2024-05-09T01:14:15.133Z,86.24
2024-05-09T01:15:15.085Z,86.50
2024-05-09T01:16:15.051Z,86.30
2024-05-09T01:17:15.183Z,86.54
2024-05-09T01:18:15.171Z,86.44
2024-05-09T01:19:15.167Z,86.24
2024-05-09T01:20:20.234Z,86.54
2024-05-09T01:21:15.170Z,86.95
2024-05-09T01:22:15.014Z,86.75
2024-05-09T01:23:16.336Z,86.54
2024-05-09T01:24:14.973Z,86.65
2024-05-09T01:25:14.954Z,86.65
2024-05-09T01:26:15.023Z,86.33
2024-05-09T01:27:14.970Z,86.13
2024-05-09T01:28:14.912Z,86.24
2024-05-09T01:29:14.971Z,86.33
2024-05-09T01:30:20.825Z,86.24
2024-05-09T01:31:14.932Z,86.44
2024-05-09T01:32:15.039Z,86.44
2024-05-09T01:33:15.038Z,86.44
2024-05-09T01:34:14.920Z,86.13
2024-05-09T01:35:14.916Z,86.13
2024-05-09T01:36:14.873Z,86.24
2024-05-09T01:37:14.855Z,86.44
2024-05-09T01:38:14.867Z,86.54
2024-05-09T01:39:14.814Z,87.37
2024-05-09T01:40:18.688Z,87.71
2024-05-09T01:41:14.820Z,87.92
2024-05-09T01:42:14.782Z,88.43
2024-05-09T01:43:14.796Z,88.78
2024-05-09T01:44:14.779Z,89.40
2024-05-09T01:45:14.753Z,90.06
2024-05-09T01:46:14.742Z,90.47
2024-05-09T01:47:14.866Z,90.78
2024-05-09T01:48:14.908Z,90.98
2024-05-09T01:49:14.782Z,91.29
2024-05-09T01:51:14.827Z,90.61
2024-05-09T01:52:14.661Z,90.16
2024-05-09T01:53:15.323Z,89.75
2024-05-09T01:54:14.654Z,89.85
2024-05-09T01:55:14.648Z,89.54
2024-05-09T01:56:14.695Z,89.23
2024-05-09T01:57:14.649Z,89.54
2024-05-09T01:58:14.592Z,89.13
2024-05-09T01:59:14.679Z,89.03
2024-05-09T02:00:22.130Z,88.82
2024-05-09T02:01:14.682Z,89.64
2024-05-09T02:02:14.756Z,89.13
2024-05-09T02:03:16.961Z,88.51
2024-05-09T02:04:14.746Z,88.27
2024-05-09T02:05:14.733Z,88.68
2024-05-09T02:06:14.577Z,88.17
2024-05-09T02:07:14.503Z,88.37
2024-05-09T02:08:14.515Z,88.78
2024-05-09T02:09:14.474Z,88.27
2024-05-09T02:10:20.424Z,88.57
2024-05-09T02:11:14.549Z,88.27
2024-05-09T02:12:14.691Z,87.96
2024-05-09T02:13:14.452Z,87.55
2024-05-09T02:14:14.518Z,87.34
2024-05-09T02:15:14.408Z,87.24
2024-05-09T02:16:14.400Z,87.24
2024-05-09T02:17:14.470Z,87.13
2024-05-09T02:18:14.643Z,86.93
2024-05-09T02:19:14.512Z,87.75
2024-05-09T02:20:22.551Z,87.55
2024-05-09T02:21:14.452Z,87.34
2024-05-09T02:22:14.373Z,87.65
2024-05-09T02:23:14.444Z,87.34
2024-05-09T02:24:14.302Z,87.55
2024-05-09T02:25:14.310Z,87.34
2024-05-09T02:26:14.346Z,87.04
2024-05-09T02:27:14.309Z,86.83
2024-05-09T02:28:14.284Z,86.52
2024-05-09T02:29:14.379Z,86.72
2024-05-09T02:30:22.507Z,86.62
2024-05-09T02:31:14.256Z,86.42
2024-05-09T02:32:14.377Z,87.24
2024-05-09T02:33:14.726Z,86.72
2024-05-09T02:34:14.249Z,86.72
2024-05-09T02:35:14.288Z,86.62
2024-05-09T02:36:14.165Z,86.32
2024-05-09T02:37:14.191Z,87.24
2024-05-09T02:38:14.200Z,86.93
2024-05-09T02:39:14.146Z,87.13
2024-05-09T02:41:39.767Z,87.13
2024-05-09T02:41:45.029Z,87.34
2024-05-09T02:42:45.071Z,87.34
2024-05-09T02:43:45.032Z,87.04
2024-05-09T02:44:45.005Z,87.13
2024-05-09T02:45:44.981Z,86.72
2024-05-09T02:46:45.002Z,86.62
2024-05-09T02:47:45.190Z,87.04
2024-05-09T02:48:45.047Z,87.38
2024-05-09T02:49:45.028Z,87.79
2024-05-09T02:50:45.175Z,88.20
2024-05-09T02:51:44.916Z,87.69
2024-05-09T02:52:44.978Z,87.38
2024-05-09T02:53:44.993Z,87.49
2024-05-09T02:54:44.952Z,87.59
2024-05-09T02:55:44.932Z,87.07
2024-05-09T02:56:44.860Z,87.18
2024-05-09T02:57:44.851Z,87.38
2024-05-09T02:58:44.904Z,87.49
2024-05-09T02:59:44.842Z,87.18
2024-05-09T03:00:44.880Z,86.97
2024-05-09T03:01:44.994Z,86.97
2024-05-09T03:02:44.942Z,86.87
2024-05-09T03:03:44.917Z,86.56
2024-05-09T03:04:44.797Z,86.77
2024-05-09T03:05:45.313Z,86.66
2024-05-09T03:06:44.755Z,87.38
2024-05-09T03:07:44.795Z,87.79
2024-05-09T03:08:44.773Z,88.41
2024-05-09T03:09:44.707Z,89.44
2024-05-09T03:10:44.721Z,89.34
2024-05-09T03:11:44.839Z,89.58
2024-05-09T03:12:44.857Z,89.28
2024-05-09T03:13:44.707Z,89.28
2024-05-09T03:14:44.645Z,89.79
2024-05-09T03:15:45.118Z,90.34
2024-05-09T03:16:44.662Z,90.66
2024-05-09T03:17:44.883Z,91.06
2024-05-09T03:18:44.747Z,91.52
2024-05-09T03:19:44.639Z,91.83
2024-05-09T03:20:45.003Z,92.18
2024-05-09T03:21:44.588Z,92.90
2024-05-09T03:22:44.640Z,93.56
2024-05-09T03:23:44.753Z,94.08
2024-05-09T03:24:44.571Z,94.43
2024-05-09T03:25:44.595Z,94.64
2024-05-09T03:26:44.519Z,95.05
2024-05-09T03:27:44.528Z,95.25
2024-05-09T03:28:44.771Z,95.15
2024-05-09T03:29:44.526Z,94.95
2024-05-09T03:30:44.531Z,94.78
2024-05-09T03:31:44.592Z,94.74
2024-05-09T03:32:44.589Z,94.74
2024-05-09T03:33:44.655Z,94.64
2024-05-09T03:34:44.489Z,94.43
2024-05-09T03:35:44.441Z,94.32
2024-05-09T03:36:44.489Z,94.23
2024-05-09T03:37:44.461Z,94.32
2024-05-09T03:38:44.469Z,94.12
2024-05-09T03:39:44.400Z,94.12
2024-05-09T03:40:44.463Z,94.12
2024-05-09T03:41:44.485Z,94.12
2024-05-09T03:42:44.346Z,94.23
2024-05-09T03:43:44.414Z,94.53
2024-05-09T03:44:44.354Z,94.74
2024-05-09T03:45:44.342Z,94.53
2024-05-09T03:46:44.381Z,94.23
2024-05-09T03:47:44.560Z,93.71
2024-05-09T03:48:44.466Z,93.60
2024-05-09T03:49:44.352Z,93.30
2024-05-09T03:50:44.336Z,92.88
2024-05-09T03:51:44.259Z,92.57
2024-05-09T03:52:44.331Z,92.43
2024-05-09T03:53:44.323Z,92.84
2024-05-09T03:54:44.216Z,92.84
2024-05-09T03:55:44.284Z,92.02
2024-05-09T03:56:44.293Z,91.50
2024-05-09T03:57:44.226Z,90.99
2024-05-09T03:58:44.230Z,90.84
2024-05-09T03:59:44.227Z,90.33
2024-05-09T04:00:44.201Z,90.33
2024-05-09T04:01:44.264Z,90.33
2024-05-09T04:02:44.290Z,90.53
2024-05-09T04:03:44.293Z,90.64
2024-05-09T04:04:44.209Z,90.43
2024-05-09T04:05:44.716Z,90.22
2024-05-09T04:06:44.119Z,90.73
2024-05-09T04:07:44.156Z,90.84
2024-05-09T04:08:44.113Z,91.15
2024-05-09T04:09:44.088Z,91.05
2024-05-09T04:10:44.176Z,91.05
2024-05-09T04:11:44.132Z,91.05
2024-05-09T04:12:44.037Z,91.36
2024-05-09T04:13:44.113Z,91.91
2024-05-09T04:14:44.033Z,91.91
2024-05-09T04:15:44.003Z,91.71
2024-05-09T04:16:44.074Z,91.81
2024-05-09T04:17:44.117Z,91.60
2024-05-09T04:18:44.078Z,91.30
2024-05-09T04:19:44.074Z,91.30
2024-05-09T04:20:43.995Z,90.94
2024-05-09T04:21:43.955Z,90.94
2024-05-09T04:22:43.998Z,90.64
2024-05-09T04:23:43.955Z,90.64
2024-05-09T04:24:43.930Z,90.12
2024-05-09T04:25:44.566Z,89.91
2024-05-09T04:26:43.981Z,89.61
2024-05-09T04:27:43.905Z,89.29
2024-05-09T04:28:43.978Z,89.15
2024-05-09T04:29:43.852Z,88.95
2024-05-09T04:30:43.919Z,89.05
2024-05-09T04:31:43.929Z,88.74
2024-05-09T04:32:44.175Z,89.05
2024-05-09T04:33:44.065Z,88.74
2024-05-09T04:34:43.881Z,88.64
2024-05-09T04:35:44.237Z,88.53
2024-05-09T04:36:44.730Z,88.74
2024-05-09T04:37:43.830Z,88.95
2024-05-09T04:38:43.838Z,88.64
2024-05-09T04:39:43.792Z,87.92
2024-05-09T04:40:43.784Z,88.02
2024-05-09T04:41:43.751Z,88.33
2024-05-09T04:42:43.711Z,88.23
2024-05-09T04:43:43.690Z,88.43
2024-05-09T04:44:43.701Z,88.49
2024-05-09T04:45:43.671Z,88.49
2024-05-09T04:46:43.662Z,88.08
2024-05-09T04:47:43.761Z,87.77
2024-05-09T04:48:43.905Z,88.49
2024-05-09T04:49:43.673Z,89.01
2024-05-09T04:50:43.675Z,89.11
2024-05-09T04:51:43.601Z,89.31
2024-05-09T04:52:43.609Z,88.90
2024-05-09T04:53:43.728Z,89.01
2024-05-09T04:54:43.594Z,90.03
2024-05-09T04:55:43.566Z,90.20
2024-05-09T04:56:43.615Z,89.79
2024-05-09T04:57:43.566Z,89.38
2024-05-09T04:58:43.525Z,89.38
2024-05-09T04:59:43.549Z,89.07
2024-05-09T05:00:43.597Z,89.17
2024-05-09T05:01:43.500Z,89.07
2024-05-09T05:02:43.773Z,88.76
2024-05-09T05:03:43.707Z,89.07
2024-05-09T05:04:43.607Z,91.02
2024-05-09T05:05:44.850Z,90.67
2024-05-09T05:06:43.470Z,90.06
2024-05-09T05:07:43.424Z,89.54
2024-05-09T05:08:43.447Z,89.13
2024-05-09T05:09:43.398Z,89.23
2024-05-09T05:10:43.467Z,88.82
2024-05-09T05:11:43.563Z,88.82
2024-05-09T05:12:43.510Z,89.23
2024-05-09T05:13:43.367Z,88.78
2024-05-09T05:14:43.353Z,89.19
2024-05-09T05:15:43.350Z,90.22
2024-05-09T05:16:43.315Z,90.42
2024-05-09T05:17:43.605Z,89.91
2024-05-09T05:18:43.430Z,89.46
2024-05-09T05:19:43.487Z,89.25
2024-05-09T05:20:43.405Z,89.66
2024-05-09T05:21:43.271Z,89.76
2024-05-09T05:22:43.253Z,89.97
2024-05-09T05:23:43.394Z,89.46
2024-05-09T05:24:43.255Z,89.36
2024-05-09T05:25:43.385Z,89.52
2024-05-09T05:26:43.260Z,89.62
2024-05-09T05:27:43.202Z,88.90
2024-05-09T05:28:43.182Z,88.70
2024-05-09T05:29:43.203Z,89.42
2024-05-09T05:30:43.196Z,88.90
2024-05-09T05:31:43.242Z,88.56
2024-05-09T05:32:43.254Z,88.45
2024-05-09T05:33:43.239Z,88.66
2024-05-09T05:34:43.150Z,88.35
2024-05-09T05:35:43.564Z,89.27
2024-05-09T05:36:43.099Z,89.58
2024-05-09T05:37:43.114Z,89.48
2024-05-09T05:38:43.107Z,89.95
2024-05-09T05:39:43.188Z,89.23
2024-05-09T05:40:43.167Z,89.13
2024-05-09T05:41:43.116Z,88.00
2024-05-09T05:42:43.063Z,88.41
2024-05-09T05:43:43.057Z,88.72
2024-05-09T05:44:43.015Z,88.47
2024-05-09T05:45:43.012Z,87.96
2024-05-09T05:46:43.035Z,88.17
2024-05-09T05:47:43.085Z,87.34
2024-05-09T05:48:43.129Z,87.51
2024-05-09T05:49:42.991Z,87.20
2024-05-09T05:50:43.003Z,87.51
2024-05-09T05:51:42.977Z,86.48
2024-05-09T05:52:42.923Z,87.26
2024-05-09T05:53:43.030Z,86.24
2024-05-09T05:54:42.942Z,86.65
2024-05-09T05:55:42.971Z,86.75
2024-05-09T05:56:42.969Z,86.14
2024-05-09T05:57:42.997Z,86.24
2024-05-09T05:58:42.882Z,86.04
2024-05-09T05:59:42.892Z,85.48
2024-05-09T06:00:43.261Z,85.28
2024-05-09T06:01:42.890Z,85.07
2024-05-09T06:02:43.044Z,85.48
2024-05-09T06:03:43.059Z,86.51
2024-05-09T06:04:42.876Z,87.12
2024-05-09T06:05:42.812Z,85.85
2024-05-09T06:06:42.767Z,84.93
2024-05-09T06:07:42.832Z,84.42
2024-05-09T06:08:42.936Z,84.69
2024-05-09T06:09:43.834Z,84.28
2024-05-09T06:10:42.945Z,84.58
2024-05-09T06:11:42.933Z,83.87
2024-05-09T06:12:42.726Z,83.46
2024-05-09T06:13:42.706Z,83.22
2024-05-09T06:14:42.695Z,83.32
2024-05-09T06:15:43.517Z,81.68
2024-05-09T06:16:42.679Z,82.36
2024-05-09T06:17:42.854Z,81.54
2024-05-09T06:18:42.883Z,81.24
2024-05-09T06:19:42.712Z,81.74
2024-05-09T06:20:43.945Z,82.22
2024-05-09T06:21:42.642Z,81.51
2024-05-09T06:22:42.601Z,81.40
2024-05-09T06:23:42.644Z,79.57
2024-05-09T06:24:42.572Z,80.38
2024-05-09T06:25:43.041Z,79.83
2024-05-09T06:26:43.971Z,81.05
2024-05-09T06:27:42.581Z,80.44
2024-05-09T06:28:42.581Z,80.51
2024-05-09T06:29:42.593Z,80.41
2024-05-09T06:30:43.384Z,80.00
2024-05-09T06:31:42.505Z,79.39
2024-05-09T06:32:42.588Z,79.18
2024-05-09T06:33:42.645Z,79.04
2024-05-09T06:34:42.616Z,77.41
2024-05-09T06:35:42.674Z,77.62
2024-05-09T06:36:42.480Z,77.62
2024-05-09T06:37:42.434Z,77.45
2024-05-09T06:38:42.536Z,77.96
2024-05-09T06:39:42.415Z,78.16
2024-05-09T06:40:43.870Z,77.86
2024-05-09T06:41:42.497Z,78.16
2024-05-09T06:42:42.443Z,78.27
2024-05-09T06:43:42.392Z,78.27
2024-05-09T06:44:42.413Z,78.27
2024-05-09T06:45:42.440Z,78.27
2024-05-09T06:46:42.435Z,81.09
2024-05-09T06:47:42.465Z,80.88
2024-05-09T06:48:42.479Z,79.41
2024-05-09T06:49:42.504Z,79.00
2024-05-09T06:50:42.352Z,77.03
2024-05-09T06:51:42.289Z,76.62
2024-05-09T06:52:42.381Z,75.92
2024-05-09T06:53:42.301Z,76.90
2024-05-09T06:54:42.358Z,76.18
2024-05-09T06:55:42.249Z,75.64
2024-05-09T06:56:42.314Z,77.03
2024-05-09T06:57:43.225Z,76.38
2024-05-09T06:58:42.216Z,74.55
2024-05-09T06:59:42.300Z,74.41
2024-05-09T07:00:42.614Z,71.36
2024-05-09T07:01:42.193Z,72.62
2024-05-09T07:02:42.461Z,72.92
2024-05-09T07:03:42.226Z,73.91
2024-05-09T07:04:42.182Z,73.50
2024-05-09T07:05:42.260Z,73.46
2024-05-09T07:06:42.137Z,72.45
2024-05-09T07:07:42.104Z,71.73
2024-05-09T07:08:42.112Z,72.75
2024-05-09T07:09:42.083Z,72.28
2024-05-09T07:10:42.161Z,72.78
2024-05-09T07:11:42.224Z,73.39
2024-05-09T07:12:42.065Z,74.01
2024-05-09T07:13:42.064Z,76.45
2024-05-09T07:14:42.073Z,75.94
2024-05-09T07:15:42.114Z,75.29
2024-05-09T07:16:42.048Z,75.56
2024-05-09T07:17:42.232Z,75.36
2024-05-09T07:18:42.370Z,75.43
2024-05-09T07:19:42.062Z,72.34
2024-05-09T07:20:42.879Z,72.65
2024-05-09T07:21:41.946Z,71.91
2024-05-09T07:22:41.963Z,71.30
2024-05-09T07:23:45.177Z,70.65
2024-05-09T07:24:41.967Z,70.65
2024-05-09T07:25:42.040Z,70.45
2024-05-09T07:26:42.025Z,70.32
2024-05-09T07:27:41.875Z,71.33
2024-05-09T07:28:41.888Z,68.87
2024-05-09T07:29:41.931Z,69.27
2024-05-09T07:32:58.759Z,70.69
2024-05-09T07:33:04.499Z,68.94
2024-05-09T07:34:04.219Z,68.30
2024-05-09T07:35:04.194Z,66.88
2024-05-09T07:36:04.227Z,66.88
2024-05-09T07:37:04.126Z,67.66
2024-05-09T07:38:04.147Z,66.95
2024-05-09T07:39:04.174Z,65.00
2024-05-09T07:40:05.827Z,65.40
2024-05-09T07:41:04.160Z,64.29
2024-05-09T07:42:04.062Z,64.70
2024-05-09T07:43:04.067Z,67.19
2024-05-09T07:44:04.177Z,66.69
2024-05-09T07:45:20.908Z,65.84
2024-05-09T07:47:03.898Z,64.64
2024-05-09T07:49:44.319Z,66.32
2024-05-09T07:53:14.180Z,65.18
2024-05-09T07:53:46.078Z,62.01
2024-05-09T07:53:57.242Z,56.03
2024-05-09T07:54:52.980Z,54.10
2024-05-09T07:55:53.014Z,53.95
2024-05-09T07:56:53.070Z,51.92
2024-05-09T07:57:52.753Z,49.49
2024-05-09T07:58:52.915Z,50.16
2024-05-09T07:59:52.612Z,50.04
2024-05-09T08:00:52.760Z,50.24
2024-05-09T08:01:52.789Z,49.82
2024-05-09T08:02:52.709Z,48.79
2024-05-09T08:03:52.837Z,47.97
2024-05-09T08:04:52.677Z,49.15
2024-05-09T08:05:52.700Z,49.25
2024-05-09T08:06:52.613Z,47.72
2024-05-09T08:07:52.573Z,47.35
2024-05-09T08:08:52.651Z,47.15
2024-05-09T08:09:52.702Z,47.27
2024-05-09T08:10:52.699Z,46.85
2024-05-09T08:11:52.674Z,47.45
2024-05-09T08:12:52.666Z,47.13
2024-05-09T08:13:52.526Z,45.90
2024-05-09T08:14:52.451Z,45.73
2024-05-09T08:15:52.860Z,44.63
2024-05-09T08:16:52.506Z,44.33
2024-05-09T08:17:52.578Z,43.15
2024-05-09T08:18:52.564Z,44.17
2024-05-09T08:19:52.531Z,46.47
2024-05-09T08:20:52.511Z,45.07
2024-05-09T08:21:52.444Z,43.90
2024-05-09T08:22:52.372Z,43.82
2024-05-09T08:23:52.357Z,45.74
2024-05-09T08:24:52.463Z,47.02
2024-05-09T08:25:52.323Z,45.92
2024-05-09T08:26:52.335Z,45.74
2024-05-09T08:27:52.439Z,47.54
2024-05-09T08:28:52.299Z,46.92
2024-05-09T08:29:52.429Z,48.82
2024-05-09T08:30:52.403Z,46.09
2024-05-09T08:31:52.319Z,47.07
2024-05-09T08:32:52.328Z,45.57
2024-05-09T08:33:52.522Z,47.27
2024-05-09T08:34:52.305Z,46.27
2024-05-09T08:35:52.312Z,44.27
2024-05-09T08:36:52.228Z,46.05
2024-05-09T08:37:52.232Z,46.83
2024-05-09T08:38:52.208Z,45.65
2024-05-09T08:39:52.282Z,46.95
2024-05-09T08:40:52.301Z,47.25
2024-05-09T08:41:52.196Z,47.35
2024-05-09T08:42:52.341Z,46.25
2024-05-09T08:43:52.141Z,46.05
2024-05-09T08:44:52.133Z,47.65
2024-05-09T08:45:52.180Z,45.85
2024-05-09T08:46:52.124Z,43.63
2024-05-09T08:47:52.427Z,40.86
2024-05-09T08:48:52.225Z,44.17
2024-05-09T08:49:52.162Z,45.20
2024-05-09T08:50:52.222Z,46.50
2024-05-09T08:51:52.095Z,47.27
2024-05-09T08:52:52.053Z,45.27
2024-05-09T08:53:52.022Z,46.17
2024-05-09T08:54:52.073Z,44.47
2024-05-09T08:55:52.113Z,45.85
2024-05-09T08:56:52.023Z,44.05
2024-05-09T08:57:52.107Z,44.75
2024-05-09T08:58:51.980Z,45.77
2024-05-09T08:59:51.977Z,42.27
2024-05-09T09:00:52.070Z,41.77
2024-05-09T09:01:52.049Z,43.98
2024-05-09T09:02:51.968Z,44.27
2024-05-09T09:03:52.016Z,44.87
2024-05-09T09:04:52.850Z,44.05
2024-05-09T09:05:52.048Z,43.85
2024-05-09T09:06:53.245Z,41.96
2024-05-09T09:07:51.919Z,41.55
2024-05-09T09:08:51.884Z,42.55
2024-05-09T09:09:51.954Z,40.83
2024-05-09T09:10:51.870Z,38.94
2024-05-09T09:11:51.915Z,39.74
2024-05-09T09:12:51.967Z,40.73
2024-05-09T09:13:51.770Z,41.74
2024-05-09T09:14:51.772Z,43.01
2024-05-09T09:15:51.788Z,42.02
2024-05-09T09:16:51.743Z,43.51
2024-05-09T09:17:51.875Z,42.10
2024-05-09T09:18:51.992Z,39.70
2024-05-09T09:19:51.737Z,41.97
2024-05-09T09:20:51.683Z,38.68
2024-05-09T09:21:51.692Z,37.70
2024-05-09T09:22:51.656Z,41.00
2024-05-09T09:23:51.691Z,38.40
2024-05-09T09:24:51.844Z,41.00
2024-05-09T09:25:51.609Z,37.21
2024-05-09T09:26:51.615Z,35.23
2024-05-09T09:27:51.724Z,37.42
2024-05-09T09:28:51.579Z,38.42
2024-05-09T09:29:51.602Z,39.52
2024-05-09T09:30:51.698Z,39.70
2024-05-09T09:31:51.545Z,35.51
2024-05-09T09:32:51.621Z,37.60
2024-05-09T09:33:51.666Z,36.02
2024-05-09T09:34:51.586Z,36.22
2024-05-09T09:35:51.490Z,39.42
2024-05-09T09:36:51.568Z,38.02
2024-05-09T09:37:51.489Z,35.93
2024-05-09T09:38:51.446Z,39.02
2024-05-09T09:39:51.479Z,39.40
2024-05-09T09:40:51.528Z,39.60
2024-05-09T09:41:51.425Z,38.59
2024-05-09T09:42:51.475Z,37.77
2024-05-09T09:43:51.426Z,37.47
2024-05-09T09:45:01.782Z,37.07
2024-05-09T09:45:51.948Z,37.27
2024-05-09T09:46:51.418Z,37.47
2024-05-09T09:47:51.630Z,37.57
2024-05-09T09:48:51.424Z,38.67
2024-05-09T09:49:51.375Z,36.07
2024-05-09T09:50:51.364Z,35.56
2024-05-09T09:51:51.389Z,37.87
2024-05-09T09:52:51.313Z,39.25
2024-05-09T09:53:51.306Z,39.44
2024-05-09T09:54:51.283Z,38.23
2024-05-09T09:55:51.294Z,36.83
2024-05-09T09:56:51.316Z,38.41
2024-05-09T09:57:51.281Z,39.90
2024-05-09T09:58:51.234Z,36.12
2024-05-09T09:59:51.237Z,35.92
2024-05-09T10:00:51.410Z,34.64
2024-05-09T10:01:51.253Z,35.94
2024-05-09T10:02:51.248Z,39.32
2024-05-09T10:03:51.393Z,38.31
2024-05-09T10:04:51.310Z,39.61
2024-05-09T10:05:51.245Z,36.21
2024-05-09T10:06:51.219Z,37.70
2024-05-09T10:07:51.184Z,38.20
2024-05-09T10:08:51.116Z,39.47
2024-05-09T10:09:51.182Z,41.55
2024-05-09T10:10:51.234Z,39.59
2024-05-09T10:11:52.420Z,38.89
2024-05-09T10:12:51.124Z,39.09
2024-05-09T10:13:51.108Z,38.01
2024-05-09T10:14:51.050Z,41.44
2024-05-09T10:15:51.289Z,41.16
2024-05-09T10:16:51.076Z,41.58
2024-05-09T10:17:51.213Z,41.38
2024-05-09T10:18:51.324Z,42.18
2024-05-09T10:19:51.092Z,38.76
2024-05-09T10:20:51.003Z,39.88
2024-05-09T10:21:51.021Z,41.80
2024-05-09T10:22:50.985Z,40.48
2024-05-09T10:23:50.981Z,39.18
2024-05-09T10:24:50.993Z,38.18
2024-05-09T10:25:50.939Z,37.67
2024-05-09T10:26:50.924Z,37.47
2024-05-09T10:27:51.164Z,36.07
2024-05-09T10:28:51.027Z,36.99
2024-05-09T10:29:50.905Z,37.57
2024-05-09T10:30:50.930Z,38.65
2024-05-09T10:31:50.918Z,37.73
2024-05-09T10:32:50.956Z,37.41
2024-05-09T10:33:52.133Z,37.40
2024-05-09T10:34:50.864Z,36.70
2024-05-09T10:35:50.831Z,36.70
2024-05-09T10:36:50.881Z,37.70
2024-05-09T10:37:50.828Z,38.47
2024-05-09T10:38:50.841Z,38.65
2024-05-09T10:39:50.815Z,35.87
2024-05-09T10:40:50.793Z,37.48
2024-05-09T10:41:50.795Z,38.29
2024-05-09T10:42:50.829Z,36.58
2024-05-09T10:43:50.783Z,36.68
2024-05-09T10:44:50.754Z,38.69
2024-05-09T10:45:50.825Z,37.99
2024-05-09T10:46:50.750Z,38.18
2024-05-09T10:47:50.921Z,36.98
2024-05-09T10:48:50.826Z,36.07
2024-05-09T10:49:50.789Z,33.20
2024-05-09T10:50:50.666Z,35.11
2024-05-09T10:51:50.809Z,34.52
2024-05-09T10:52:50.662Z,35.11
2024-05-09T10:53:50.693Z,34.71
2024-05-09T10:54:50.674Z,33.73
2024-05-09T10:55:50.619Z,36.02
2024-05-09T10:56:50.627Z,36.40
2024-05-09T10:57:50.645Z,34.11
2024-05-09T10:58:50.594Z,37.73
2024-05-09T10:59:50.573Z,36.04
2024-05-09T11:00:50.677Z,37.32
2024-05-09T11:01:50.668Z,38.01
2024-05-09T11:02:50.664Z,37.60
2024-05-09T11:03:50.821Z,36.60
2024-05-09T11:04:50.698Z,35.05
2024-05-09T11:05:50.580Z,36.54
2024-05-09T11:06:50.523Z,37.73
2024-05-09T11:07:50.550Z,39.70
2024-05-09T11:08:50.514Z,40.40
2024-05-09T11:09:50.600Z,38.89
2024-05-09T11:10:50.595Z,38.37
2024-05-09T11:11:50.532Z,37.06
2024-05-09T11:12:50.469Z,36.75
2024-05-09T11:13:50.459Z,36.63
2024-05-09T11:14:50.417Z,34.74
2024-05-09T11:15:50.468Z,34.84
2024-05-09T11:16:50.464Z,33.75
2024-05-09T11:17:50.598Z,36.93
2024-05-09T11:18:50.513Z,36.23
2024-05-09T11:19:50.470Z,34.83
2024-05-09T11:20:50.440Z,35.21
2024-05-09T11:21:50.436Z,33.52
2024-05-09T11:22:50.335Z,31.63
2024-05-09T11:23:50.327Z,31.82
2024-05-09T11:24:50.373Z,34.30
2024-05-09T11:25:50.328Z,32.21
2024-05-09T11:26:50.297Z,34.48
2024-05-09T11:27:50.412Z,33.59
2024-05-09T11:28:50.456Z,31.31
2024-05-09T11:29:50.270Z,27.75
2024-05-09T11:30:50.362Z,31.37
2024-05-09T11:31:50.295Z,33.57
2024-05-09T11:32:50.267Z,34.34
2024-05-09T11:33:50.398Z,34.13
2024-05-09T11:34:50.223Z,31.74
2024-05-09T11:35:50.199Z,34.10
2024-05-09T11:36:50.277Z,33.69
2024-05-09T11:37:50.169Z,33.07
2024-05-09T11:38:50.199Z,31.79
2024-05-09T11:39:50.173Z,31.08
2024-05-09T11:40:50.207Z,31.68
2024-05-09T11:41:50.134Z,33.65
2024-05-09T11:42:53.005Z,33.36
2024-05-09T11:43:50.116Z,33.14
2024-05-09T11:44:50.114Z,30.79
2024-05-09T11:45:50.158Z,29.60
2024-05-09T11:46:50.436Z,32.56
2024-05-09T11:47:50.175Z,32.86
2024-05-09T11:48:50.224Z,32.18
2024-05-09T11:49:50.102Z,31.21
2024-05-09T11:50:50.058Z,32.51
2024-05-09T11:51:50.107Z,31.24
2024-05-09T11:52:50.015Z,32.14
2024-05-09T11:53:49.993Z,31.54
2024-05-09T11:54:50.049Z,30.84
2024-05-09T11:55:50.072Z,31.44
2024-05-09T11:56:49.969Z,31.42
2024-05-09T11:57:50.018Z,31.51
2024-05-09T11:58:49.947Z,31.71
2024-05-09T11:59:49.932Z,33.98
2024-05-09T12:00:50.262Z,34.78
2024-05-09T12:01:50.186Z,30.52
2024-05-09T12:02:50.028Z,33.39
2024-05-09T12:03:50.105Z,34.28
2024-05-09T12:04:49.997Z,32.79
2024-05-09T12:05:50.116Z,32.20
2024-05-09T12:06:49.963Z,33.19
2024-05-09T12:07:49.892Z,33.39
2024-05-09T12:08:49.862Z,30.32
2024-05-09T12:09:49.864Z,29.33
2024-05-09T12:10:50.047Z,29.64
2024-05-09T12:11:49.841Z,28.38
2024-05-09T12:12:49.859Z,30.77
2024-05-09T12:13:49.817Z,31.75
2024-05-09T12:14:49.773Z,32.26
2024-05-09T12:15:49.784Z,34.83
2024-05-09T12:16:49.846Z,34.83
2024-05-09T12:17:50.829Z,34.61
2024-05-09T12:18:49.956Z,34.89
2024-05-09T12:19:49.750Z,32.89
2024-05-09T12:20:49.714Z,31.20
2024-05-09T12:21:49.767Z,31.49
2024-05-09T12:22:49.694Z,33.69
2024-05-09T12:23:49.696Z,33.49
2024-05-09T12:24:49.709Z,33.49
2024-05-09T12:25:49.686Z,32.81
2024-05-09T12:26:49.653Z,33.80
2024-05-09T12:27:49.682Z,33.42
2024-05-09T12:28:49.634Z,34.12
2024-05-09T12:29:49.615Z,33.04
2024-05-09T12:30:49.648Z,35.74
2024-05-09T12:31:49.662Z,34.66
2024-05-09T12:32:49.862Z,34.88
2024-05-09T12:33:49.695Z,37.94
2024-05-09T12:34:49.577Z,37.45
2024-05-09T12:35:51.085Z,33.65
2024-05-09T12:36:49.565Z,34.64
2024-05-09T12:37:49.545Z,32.46
2024-05-09T12:38:49.527Z,33.55
2024-05-09T12:39:49.598Z,33.15
2024-05-09T12:40:49.634Z,34.74
2024-05-09T12:41:49.483Z,33.83
2024-05-09T12:42:49.574Z,34.01
2024-05-09T12:43:49.485Z,33.33
2024-05-09T12:44:49.494Z,33.24
2024-05-09T12:45:49.504Z,32.94
2024-05-09T12:46:49.422Z,35.13
2024-05-09T12:47:49.545Z,35.64
2024-05-09T12:48:49.688Z,35.24
2024-05-09T12:49:49.440Z,35.22
2024-05-09T12:50:49.678Z,34.43
2024-05-09T12:51:49.423Z,34.01
2024-05-09T12:52:49.372Z,35.21
2024-05-09T12:53:49.378Z,34.30
2024-05-09T12:54:49.392Z,35.01
2024-05-09T12:55:56.631Z,34.61
2024-05-09T12:56:49.350Z,35.01
2024-05-09T12:57:49.359Z,34.52
2024-05-09T12:58:49.313Z,34.41